sensor_id;sensor_type;location;lat;lon;timestamp;temperature;humidity
14405;DHT22;14983;50.866;4.304;2022-08-19T00:01:59;20.10;1.30
14405;DHT22;14983;50.866;4.304;2022-08-19T00:04:28;20.10;99.90
14405;DHT22;14983;50.866;4.304;2022-08-19T00:07:00;20.20;1.00
14405;DHT22;14983;50.866;4.304;2022-08-19T00:09:36;20.00;1.00
14405;DHT22;14983;50.866;4.304;2022-08-19T00:12:03;20.00;99.90
14405;DHT22;14983;50.866;4.304;2022-08-19T00:14:31;20.00;99.90
14405;DHT22;14983;50.866;4.304;2022-08-19T00:17:00;20.00;99.90
14405;DHT22;14983;50.866;4.304;2022-08-19T00:19:28;19.90;99.90
14405;DHT22;14983;50.866;4.304;2022-08-19T00:21:56;19.70;99.90
14405;DHT22;14983;50.866;4.304;2022-08-19T00:24:23;20.00;99.90
14405;DHT22;14983;50.866;4.304;2022-08-19T00:26:51;19.90;99.90
14405;DHT22;14983;50.866;4.304;2022-08-19T00:29:20;20.00;99.90
14405;DHT22;14983;50.866;4.304;2022-08-19T00:31:47;20.00;99.90
14405;DHT22;14983;50.866;4.304;2022-08-19T00:34:17;19.90;99.90
14405;DHT22;14983;50.866;4.304;2022-08-19T00:36:44;19.90;99.90
14405;DHT22;14983;50.866;4.304;2022-08-19T00:39:13;19.80;99.90
14405;DHT22;14983;50.866;4.304;2022-08-19T00:41:44;19.70;99.90
14405;DHT22;14983;50.866;4.304;2022-08-19T00:44:16;19.70;99.90
14405;DHT22;14983;50.866;4.304;2022-08-19T00:46:48;19.80;99.90
14405;DHT22;14983;50.866;4.304;2022-08-19T00:49:19;19.90;99.90
14405;DHT22;14983;50.866;4.304;2022-08-19T00:51:50;19.90;99.90
14405;DHT22;14983;50.866;4.304;2022-08-19T00:54:18;19.90;99.90
14405;DHT22;14983;50.866;4.304;2022-08-19T00:56:47;20.00;99.90
14405;DHT22;14983;50.866;4.304;2022-08-19T00:59:15;19.90;99.90
14405;DHT22;14983;50.866;4.304;2022-08-19T01:01:44;19.80;99.90
14405;DHT22;14983;50.866;4.304;2022-08-19T01:04:11;19.80;99.90
14405;DHT22;14983;50.866;4.304;2022-08-19T01:06:41;19.80;99.90
14405;DHT22;14983;50.866;4.304;2022-08-19T01:09:08;19.80;99.90
14405;DHT22;14983;50.866;4.304;2022-08-19T01:11:40;19.70;99.90
14405;DHT22;14983;50.866;4.304;2022-08-19T01:14:09;19.50;99.90
14405;DHT22;14983;50.866;4.304;2022-08-19T01:16:37;19.30;99.90
14405;DHT22;14983;50.866;4.304;2022-08-19T01:19:10;19.20;99.90
14405;DHT22;14983;50.866;4.304;2022-08-19T01:21:44;19.20;99.90
14405;DHT22;14983;50.866;4.304;2022-08-19T01:24:14;19.30;99.90
14405;DHT22;14983;50.866;4.304;2022-08-19T01:26:43;19.40;99.90
14405;DHT22;14983;50.866;4.304;2022-08-19T01:29:11;19.40;99.90
14405;DHT22;14983;50.866;4.304;2022-08-19T01:31:38;19.30;99.90
14405;DHT22;14983;50.866;4.304;2022-08-19T01:34:06;19.20;99.90
14405;DHT22;14983;50.866;4.304;2022-08-19T01:36:37;19.10;99.90
14405;DHT22;14983;50.866;4.304;2022-08-19T01:39:08;19.00;99.90
14405;DHT22;14983;50.866;4.304;2022-08-19T01:41:37;19.00;99.90
14405;DHT22;14983;50.866;4.304;2022-08-19T01:44:06;18.90;99.90
14405;DHT22;14983;50.866;4.304;2022-08-19T01:46:34;18.90;99.90
14405;DHT22;14983;50.866;4.304;2022-08-19T01:49:03;18.80;99.90
14405;DHT22;14983;50.866;4.304;2022-08-19T01:51:31;18.90;99.90
14405;DHT22;14983;50.866;4.304;2022-08-19T01:53:58;18.90;99.90
14405;DHT22;14983;50.866;4.304;2022-08-19T01:56:25;18.80;99.90
14405;DHT22;14983;50.866;4.304;2022-08-19T01:58:56;18.70;99.90
14405;DHT22;14983;50.866;4.304;2022-08-19T02:01:23;18.80;99.90
14405;DHT22;14983;50.866;4.304;2022-08-19T02:03:50;18.90;99.90
14405;DHT22;14983;50.866;4.304;2022-08-19T02:06:19;18.80;99.90
14405;DHT22;14983;50.866;4.304;2022-08-19T02:08:46;18.80;99.90
14405;DHT22;14983;50.866;4.304;2022-08-19T02:11:20;18.70;99.90
14405;DHT22;14983;50.866;4.304;2022-08-19T02:13:48;18.70;99.90
14405;DHT22;14983;50.866;4.304;2022-08-19T02:16:18;18.60;99.90
14405;DHT22;14983;50.866;4.304;2022-08-19T02:18:45;18.60;99.90
14405;DHT22;14983;50.866;4.304;2022-08-19T02:21:14;18.60;99.90
14405;DHT22;14983;50.866;4.304;2022-08-19T02:23:41;18.50;99.90
14405;DHT22;14983;50.866;4.304;2022-08-19T02:26:09;18.30;99.90
14405;DHT22;14983;50.866;4.304;2022-08-19T02:28:36;18.20;99.90
14405;DHT22;14983;50.866;4.304;2022-08-19T02:31:08;18.10;99.90
14405;DHT22;14983;50.866;4.304;2022-08-19T02:33:36;18.10;99.90
14405;DHT22;14983;50.866;4.304;2022-08-19T02:36:05;18.00;99.90
14405;DHT22;14983;50.866;4.304;2022-08-19T02:38:33;18.00;99.90
14405;DHT22;14983;50.866;4.304;2022-08-19T02:41:02;18.00;99.90
14405;DHT22;14983;50.866;4.304;2022-08-19T02:43:31;17.90;99.90
14405;DHT22;14983;50.866;4.304;2022-08-19T02:46:01;17.90;99.90
14405;DHT22;14983;50.866;4.304;2022-08-19T02:48:29;17.90;99.90
14405;DHT22;14983;50.866;4.304;2022-08-19T02:50:59;17.90;99.90
14405;DHT22;14983;50.866;4.304;2022-08-19T02:53:27;17.80;99.90
14405;DHT22;14983;50.866;4.304;2022-08-19T02:55:54;17.80;99.90
14405;DHT22;14983;50.866;4.304;2022-08-19T02:58:22;17.70;99.90
14405;DHT22;14983;50.866;4.304;2022-08-19T03:00:52;17.70;99.90
14405;DHT22;14983;50.866;4.304;2022-08-19T03:03:19;17.70;99.90
14405;DHT22;14983;50.866;4.304;2022-08-19T03:05:47;17.70;99.90
14405;DHT22;14983;50.866;4.304;2022-08-19T03:08:16;17.70;99.90
14405;DHT22;14983;50.866;4.304;2022-08-19T03:10:44;17.60;99.90
14405;DHT22;14983;50.866;4.304;2022-08-19T03:13:13;17.60;99.90
14405;DHT22;14983;50.866;4.304;2022-08-19T03:15:42;17.60;99.90
14405;DHT22;14983;50.866;4.304;2022-08-19T03:18:10;17.60;99.90
14405;DHT22;14983;50.866;4.304;2022-08-19T03:20:41;17.60;99.90
14405;DHT22;14983;50.866;4.304;2022-08-19T03:23:08;17.50;99.90
14405;DHT22;14983;50.866;4.304;2022-08-19T03:25:39;17.50;99.90
14405;DHT22;14983;50.866;4.304;2022-08-19T03:28:09;17.50;99.90
14405;DHT22;14983;50.866;4.304;2022-08-19T03:30:37;17.50;99.90
14405;DHT22;14983;50.866;4.304;2022-08-19T03:33:05;17.50;99.90
14405;DHT22;14983;50.866;4.304;2022-08-19T03:35:32;17.50;99.90
14405;DHT22;14983;50.866;4.304;2022-08-19T03:38:02;17.50;99.90
14405;DHT22;14983;50.866;4.304;2022-08-19T03:40:29;17.40;99.90
14405;DHT22;14983;50.866;4.304;2022-08-19T03:42:57;17.20;99.90
14405;DHT22;14983;50.866;4.304;2022-08-19T03:45:25;17.20;99.90
14405;DHT22;14983;50.866;4.304;2022-08-19T03:47:53;17.20;99.90
14405;DHT22;14983;50.866;4.304;2022-08-19T03:50:20;17.20;99.90
14405;DHT22;14983;50.866;4.304;2022-08-19T03:52:48;17.10;99.90
14405;DHT22;14983;50.866;4.304;2022-08-19T03:55:23;17.10;99.90
14405;DHT22;14983;50.866;4.304;2022-08-19T03:57:53;17.00;99.90
14405;DHT22;14983;50.866;4.304;2022-08-19T04:00:22;17.00;99.90
14405;DHT22;14983;50.866;4.304;2022-08-19T04:02:50;17.00;99.90
14405;DHT22;14983;50.866;4.304;2022-08-19T04:05:17;16.90;99.90
14405;DHT22;14983;50.866;4.304;2022-08-19T04:07:49;16.90;99.90
14405;DHT22;14983;50.866;4.304;2022-08-19T04:10:16;16.90;99.90
14405;DHT22;14983;50.866;4.304;2022-08-19T04:12:43;16.80;99.90
14405;DHT22;14983;50.866;4.304;2022-08-19T04:18:30;16.80;99.90
14405;DHT22;14983;50.866;4.304;2022-08-19T04:20:58;16.70;99.90
14405;DHT22;14983;50.866;4.304;2022-08-19T04:23:26;16.70;99.90
14405;DHT22;14983;50.866;4.304;2022-08-19T04:25:59;16.70;99.90
14405;DHT22;14983;50.866;4.304;2022-08-19T04:28:30;16.60;99.90
14405;DHT22;14983;50.866;4.304;2022-08-19T04:31:02;16.60;99.90
14405;DHT22;14983;50.866;4.304;2022-08-19T04:33:34;16.60;99.90
14405;DHT22;14983;50.866;4.304;2022-08-19T04:36:30;16.50;99.90
14405;DHT22;14983;50.866;4.304;2022-08-19T04:39:06;15.50;99.90
14405;DHT22;14983;50.866;4.304;2022-08-19T04:41:39;16.50;99.90
14405;DHT22;14983;50.866;4.304;2022-08-19T04:44:26;16.50;99.90
14405;DHT22;14983;50.866;4.304;2022-08-19T04:47:03;16.50;99.90
14405;DHT22;14983;50.866;4.304;2022-08-19T04:49:33;16.50;99.90
14405;DHT22;14983;50.866;4.304;2022-08-19T04:52:00;16.40;99.90
14405;DHT22;14983;50.866;4.304;2022-08-19T04:54:27;16.40;99.90
14405;DHT22;14983;50.866;4.304;2022-08-19T04:56:54;16.40;99.90
14405;DHT22;14983;50.866;4.304;2022-08-19T04:59:21;16.40;99.90
14405;DHT22;14983;50.866;4.304;2022-08-19T05:01:49;16.40;99.90
14405;DHT22;14983;50.866;4.304;2022-08-19T05:04:18;16.40;99.90
14405;DHT22;14983;50.866;4.304;2022-08-19T05:06:47;16.50;99.90
14405;DHT22;14983;50.866;4.304;2022-08-19T05:09:15;16.40;99.90
14405;DHT22;14983;50.866;4.304;2022-08-19T05:11:42;16.30;99.90
14405;DHT22;14983;50.866;4.304;2022-08-19T05:14:11;16.40;99.90
14405;DHT22;14983;50.866;4.304;2022-08-19T05:16:40;16.40;99.90
14405;DHT22;14983;50.866;4.304;2022-08-19T05:19:07;16.40;99.90
14405;DHT22;14983;50.866;4.304;2022-08-19T05:21:53;16.50;99.90
14405;DHT22;14983;50.866;4.304;2022-08-19T05:24:38;16.50;99.90
14405;DHT22;14983;50.866;4.304;2022-08-19T05:27:06;16.50;99.90
14405;DHT22;14983;50.866;4.304;2022-08-19T05:29:34;16.60;99.90
14405;DHT22;14983;50.866;4.304;2022-08-19T05:32:02;16.50;99.90
14405;DHT22;14983;50.866;4.304;2022-08-19T05:34:31;16.70;99.90
14405;DHT22;14983;50.866;4.304;2022-08-19T05:37:02;16.70;99.90
14405;DHT22;14983;50.866;4.304;2022-08-19T05:39:33;16.80;99.90
14405;DHT22;14983;50.866;4.304;2022-08-19T05:42:02;16.90;99.90
14405;DHT22;14983;50.866;4.304;2022-08-19T05:44:33;16.80;99.90
14405;DHT22;14983;50.866;4.304;2022-08-19T05:47:03;16.90;99.90
14405;DHT22;14983;50.866;4.304;2022-08-19T05:49:32;16.90;99.90
14405;DHT22;14983;50.866;4.304;2022-08-19T05:52:08;16.90;99.90
14405;DHT22;14983;50.866;4.304;2022-08-19T05:54:37;17.10;99.90
14405;DHT22;14983;50.866;4.304;2022-08-19T05:57:07;17.10;99.90
14405;DHT22;14983;50.866;4.304;2022-08-19T05:59:34;17.10;99.90
14405;DHT22;14983;50.866;4.304;2022-08-19T06:02:02;17.20;99.90
14405;DHT22;14983;50.866;4.304;2022-08-19T06:04:30;17.20;99.90
14405;DHT22;14983;50.866;4.304;2022-08-19T06:06:57;17.30;99.90
14405;DHT22;14983;50.866;4.304;2022-08-19T06:09:25;17.20;99.90
14405;DHT22;14983;50.866;4.304;2022-08-19T06:11:54;17.20;99.90
14405;DHT22;14983;50.866;4.304;2022-08-19T06:14:26;17.30;99.90
14405;DHT22;14983;50.866;4.304;2022-08-19T06:16:53;17.50;99.90
14405;DHT22;14983;50.866;4.304;2022-08-19T06:19:22;17.70;99.90
14405;DHT22;14983;50.866;4.304;2022-08-19T06:21:51;17.60;99.90
14405;DHT22;14983;50.866;4.304;2022-08-19T06:24:20;17.50;99.90
14405;DHT22;14983;50.866;4.304;2022-08-19T06:26:52;17.40;99.90
14405;DHT22;14983;50.866;4.304;2022-08-19T06:29:22;17.40;99.90
14405;DHT22;14983;50.866;4.304;2022-08-19T06:31:51;17.40;99.90
14405;DHT22;14983;50.866;4.304;2022-08-19T06:34:19;17.60;99.90
14405;DHT22;14983;50.866;4.304;2022-08-19T06:36:48;17.70;99.90
14405;DHT22;14983;50.866;4.304;2022-08-19T06:39:19;17.80;99.90
14405;DHT22;14983;50.866;4.304;2022-08-19T06:41:48;17.80;99.90
14405;DHT22;14983;50.866;4.304;2022-08-19T06:44:18;17.70;99.90
14405;DHT22;14983;50.866;4.304;2022-08-19T06:46:45;17.90;99.90
14405;DHT22;14983;50.866;4.304;2022-08-19T06:49:14;18.10;99.90
14405;DHT22;14983;50.866;4.304;2022-08-19T06:51:42;18.60;99.90
14405;DHT22;14983;50.866;4.304;2022-08-19T06:54:10;18.10;99.90
14405;DHT22;14983;50.866;4.304;2022-08-19T06:56:37;18.00;99.90
14405;DHT22;14983;50.866;4.304;2022-08-19T06:59:08;18.10;99.90
14405;DHT22;14983;50.866;4.304;2022-08-19T07:01:42;18.20;99.90
14405;DHT22;14983;50.866;4.304;2022-08-19T07:04:14;18.20;99.90
14405;DHT22;14983;50.866;4.304;2022-08-19T07:06:42;18.30;99.90
14405;DHT22;14983;50.866;4.304;2022-08-19T07:09:10;18.30;99.90
14405;DHT22;14983;50.866;4.304;2022-08-19T07:11:38;18.50;99.90
14405;DHT22;14983;50.866;4.304;2022-08-19T07:14:05;18.50;99.90
14405;DHT22;14983;50.866;4.304;2022-08-19T07:16:32;18.40;99.90
14405;DHT22;14983;50.866;4.304;2022-08-19T07:19:00;18.60;99.90
14405;DHT22;14983;50.866;4.304;2022-08-19T07:21:28;18.70;99.90
14405;DHT22;14983;50.866;4.304;2022-08-19T07:23:56;18.80;99.90
14405;DHT22;14983;50.866;4.304;2022-08-19T07:26:25;18.80;99.90
14405;DHT22;14983;50.866;4.304;2022-08-19T07:28:53;19.00;99.90
14405;DHT22;14983;50.866;4.304;2022-08-19T07:31:22;19.10;99.90
14405;DHT22;14983;50.866;4.304;2022-08-19T07:33:51;19.20;99.90
14405;DHT22;14983;50.866;4.304;2022-08-19T07:36:22;19.30;99.90
14405;DHT22;14983;50.866;4.304;2022-08-19T07:38:50;19.40;99.90
14405;DHT22;14983;50.866;4.304;2022-08-19T07:41:22;19.50;99.90
14405;DHT22;14983;50.866;4.304;2022-08-19T07:43:49;19.50;99.90
14405;DHT22;14983;50.866;4.304;2022-08-19T07:46:17;19.60;99.90
14405;DHT22;14983;50.866;4.304;2022-08-19T07:48:46;19.70;99.90
14405;DHT22;14983;50.866;4.304;2022-08-19T07:51:16;19.90;99.90
14405;DHT22;14983;50.866;4.304;2022-08-19T07:53:49;20.00;99.90
14405;DHT22;14983;50.866;4.304;2022-08-19T07:56:18;19.90;99.90
14405;DHT22;14983;50.866;4.304;2022-08-19T07:58:47;19.90;99.90
14405;DHT22;14983;50.866;4.304;2022-08-19T08:01:16;19.90;99.90
14405;DHT22;14983;50.866;4.304;2022-08-19T08:03:47;19.90;99.90
14405;DHT22;14983;50.866;4.304;2022-08-19T08:06:31;19.90;99.90
14405;DHT22;14983;50.866;4.304;2022-08-19T08:09:20;19.80;99.90
14405;DHT22;14983;50.866;4.304;2022-08-19T08:11:49;19.90;99.90
14405;DHT22;14983;50.866;4.304;2022-08-19T08:14:19;19.90;99.90
14405;DHT22;14983;50.866;4.304;2022-08-19T08:16:47;19.90;99.90
14405;DHT22;14983;50.866;4.304;2022-08-19T08:19:16;19.90;99.90
14405;DHT22;14983;50.866;4.304;2022-08-19T08:21:43;20.10;99.90
14405;DHT22;14983;50.866;4.304;2022-08-19T08:24:11;20.20;99.90
14405;DHT22;14983;50.866;4.304;2022-08-19T08:26:40;20.20;99.90
14405;DHT22;14983;50.866;4.304;2022-08-19T08:29:07;20.30;99.90
14405;DHT22;14983;50.866;4.304;2022-08-19T08:31:36;20.30;99.90
14405;DHT22;14983;50.866;4.304;2022-08-19T08:34:03;20.40;99.90
14405;DHT22;14983;50.866;4.304;2022-08-19T08:36:30;20.40;99.90
14405;DHT22;14983;50.866;4.304;2022-08-19T08:38:59;20.40;99.90
14405;DHT22;14983;50.866;4.304;2022-08-19T08:41:33;20.30;99.90
14405;DHT22;14983;50.866;4.304;2022-08-19T08:44:03;20.30;99.90
14405;DHT22;14983;50.866;4.304;2022-08-19T08:46:36;20.30;99.90
14405;DHT22;14983;50.866;4.304;2022-08-19T08:49:20;20.40;99.90
14405;DHT22;14983;50.866;4.304;2022-08-19T08:51:54;20.30;99.90
14405;DHT22;14983;50.866;4.304;2022-08-19T08:54:29;20.30;99.90
14405;DHT22;14983;50.866;4.304;2022-08-19T08:56:58;20.50;99.90
14405;DHT22;14983;50.866;4.304;2022-08-19T08:59:30;20.60;99.90
14405;DHT22;14983;50.866;4.304;2022-08-19T09:01:58;20.60;99.90
14405;DHT22;14983;50.866;4.304;2022-08-19T09:04:25;20.70;99.90
14405;DHT22;14983;50.866;4.304;2022-08-19T09:06:56;20.70;99.90
14405;DHT22;14983;50.866;4.304;2022-08-19T09:09:30;20.70;99.90
14405;DHT22;14983;50.866;4.304;2022-08-19T09:12:04;21.00;99.90
14405;DHT22;14983;50.866;4.304;2022-08-19T09:14:47;21.20;99.90
14405;DHT22;14983;50.866;4.304;2022-08-19T09:17:15;21.30;99.90
14405;DHT22;14983;50.866;4.304;2022-08-19T09:19:53;21.30;99.90
14405;DHT22;14983;50.866;4.304;2022-08-19T09:22:21;21.20;99.90
14405;DHT22;14983;50.866;4.304;2022-08-19T09:24:48;21.10;99.90
14405;DHT22;14983;50.866;4.304;2022-08-19T09:27:15;21.00;99.90
14405;DHT22;14983;50.866;4.304;2022-08-19T09:29:44;20.90;99.90
14405;DHT22;14983;50.866;4.304;2022-08-19T09:32:13;21.00;99.90
14405;DHT22;14983;50.866;4.304;2022-08-19T09:34:41;21.00;99.90
14405;DHT22;14983;50.866;4.304;2022-08-19T09:37:09;21.00;99.90
14405;DHT22;14983;50.866;4.304;2022-08-19T09:39:37;21.00;99.90
14405;DHT22;14983;50.866;4.304;2022-08-19T09:42:04;21.10;99.90
14405;DHT22;14983;50.866;4.304;2022-08-19T09:44:34;21.20;99.90
14405;DHT22;14983;50.866;4.304;2022-08-19T09:47:03;21.30;99.90
14405;DHT22;14983;50.866;4.304;2022-08-19T09:49:30;21.40;99.90
14405;DHT22;14983;50.866;4.304;2022-08-19T09:51:57;21.50;99.90
14405;DHT22;14983;50.866;4.304;2022-08-19T09:54:26;21.50;99.90
14405;DHT22;14983;50.866;4.304;2022-08-19T09:56:54;21.30;99.90
14405;DHT22;14983;50.866;4.304;2022-08-19T09:59:22;21.30;99.90
14405;DHT22;14983;50.866;4.304;2022-08-19T10:01:50;21.20;99.90
14405;DHT22;14983;50.866;4.304;2022-08-19T10:04:19;21.50;99.90
14405;DHT22;14983;50.866;4.304;2022-08-19T10:06:48;21.60;99.90
14405;DHT22;14983;50.866;4.304;2022-08-19T10:09:17;21.70;99.90
14405;DHT22;14983;50.866;4.304;2022-08-19T10:11:45;21.60;99.90
14405;DHT22;14983;50.866;4.304;2022-08-19T10:14:15;21.50;99.90
14405;DHT22;14983;50.866;4.304;2022-08-19T10:16:47;21.40;99.90
14405;DHT22;14983;50.866;4.304;2022-08-19T10:19:14;21.60;99.90
14405;DHT22;14983;50.866;4.304;2022-08-19T10:21:43;21.60;99.90
14405;DHT22;14983;50.866;4.304;2022-08-19T10:24:10;21.50;99.90
14405;DHT22;14983;50.866;4.304;2022-08-19T10:26:39;21.40;99.90
14405;DHT22;14983;50.866;4.304;2022-08-19T10:29:10;21.40;99.90
14405;DHT22;14983;50.866;4.304;2022-08-19T10:31:37;21.40;99.90
14405;DHT22;14983;50.866;4.304;2022-08-19T10:34:05;21.40;99.90
14405;DHT22;14983;50.866;4.304;2022-08-19T10:36:34;21.40;99.90
14405;DHT22;14983;50.866;4.304;2022-08-19T10:39:05;21.40;99.90
14405;DHT22;14983;50.866;4.304;2022-08-19T10:41:35;21.50;99.90
14405;DHT22;14983;50.866;4.304;2022-08-19T10:44:07;21.30;99.90
14405;DHT22;14983;50.866;4.304;2022-08-19T10:46:37;21.30;99.90
14405;DHT22;14983;50.866;4.304;2022-08-19T10:49:07;21.20;99.90
14405;DHT22;14983;50.866;4.304;2022-08-19T10:51:35;21.20;99.90
14405;DHT22;14983;50.866;4.304;2022-08-19T10:54:22;21.10;99.90
14405;DHT22;14983;50.866;4.304;2022-08-19T10:57:09;21.20;99.90
14405;DHT22;14983;50.866;4.304;2022-08-19T10:59:35;21.30;99.90
14405;DHT22;14983;50.866;4.304;2022-08-19T11:02:08;21.40;99.90
14405;DHT22;14983;50.866;4.304;2022-08-19T11:04:36;21.50;99.90
14405;DHT22;14983;50.866;4.304;2022-08-19T11:07:04;21.50;99.90
14405;DHT22;14983;50.866;4.304;2022-08-19T11:09:38;21.70;99.90
14405;DHT22;14983;50.866;4.304;2022-08-19T11:12:06;21.90;99.90
14405;DHT22;14983;50.866;4.304;2022-08-19T11:14:34;22.10;99.90
14405;DHT22;14983;50.866;4.304;2022-08-19T11:17:02;22.40;99.90
14405;DHT22;14983;50.866;4.304;2022-08-19T11:19:29;22.50;99.90
14405;DHT22;14983;50.866;4.304;2022-08-19T11:21:57;22.30;99.90
14405;DHT22;14983;50.866;4.304;2022-08-19T11:24:28;22.50;99.90
14405;DHT22;14983;50.866;4.304;2022-08-19T11:27:01;22.40;99.90
14405;DHT22;14983;50.866;4.304;2022-08-19T11:29:30;22.20;99.90
14405;DHT22;14983;50.866;4.304;2022-08-19T11:31:58;22.00;99.90
14405;DHT22;14983;50.866;4.304;2022-08-19T11:34:28;22.00;99.90
14405;DHT22;14983;50.866;4.304;2022-08-19T11:36:56;21.80;99.90
14405;DHT22;14983;50.866;4.304;2022-08-19T11:39:29;21.80;99.90
14405;DHT22;14983;50.866;4.304;2022-08-19T11:42:00;22.10;99.90
14405;DHT22;14983;50.866;4.304;2022-08-19T11:44:27;22.60;99.90
14405;DHT22;14983;50.866;4.304;2022-08-19T11:46:56;22.70;99.90
14405;DHT22;14983;50.866;4.304;2022-08-19T11:49:23;23.00;99.90
14405;DHT22;14983;50.866;4.304;2022-08-19T11:51:50;23.20;99.90
14405;DHT22;14983;50.866;4.304;2022-08-19T11:54:18;23.50;99.90
14405;DHT22;14983;50.866;4.304;2022-08-19T11:56:45;23.60;99.90
14405;DHT22;14983;50.866;4.304;2022-08-19T11:59:21;23.80;99.90
14405;DHT22;14983;50.866;4.304;2022-08-19T12:01:50;24.00;99.90
14405;DHT22;14983;50.866;4.304;2022-08-19T12:04:19;24.00;29.50
14405;DHT22;14983;50.866;4.304;2022-08-19T12:06:46;24.00;99.90
14405;DHT22;14983;50.866;4.304;2022-08-19T12:09:13;24.30;1.00
14405;DHT22;14983;50.866;4.304;2022-08-19T12:11:42;24.00;1.00
14405;DHT22;14983;50.866;4.304;2022-08-19T12:14:11;24.00;22.80
14405;DHT22;14983;50.866;4.304;2022-08-19T12:16:41;24.00;20.20
14405;DHT22;14983;50.866;4.304;2022-08-19T12:19:10;23.80;2.00
14405;DHT22;14983;50.866;4.304;2022-08-19T12:21:37;23.70;99.90
14405;DHT22;14983;50.866;4.304;2022-08-19T12:24:06;23.80;99.90
14405;DHT22;14983;50.866;4.304;2022-08-19T12:26:34;23.50;99.90
14405;DHT22;14983;50.866;4.304;2022-08-19T12:29:03;23.70;99.90
14405;DHT22;14983;50.866;4.304;2022-08-19T12:31:31;24.10;1.00
14405;DHT22;14983;50.866;4.304;2022-08-19T12:34:00;24.30;99.90
14405;DHT22;14983;50.866;4.304;2022-08-19T12:36:28;24.60;99.90
14405;DHT22;14983;50.866;4.304;2022-08-19T12:38:58;23.70;99.90
14405;DHT22;14983;50.866;4.304;2022-08-19T12:41:26;24.20;99.90
14405;DHT22;14983;50.866;4.304;2022-08-19T12:43:53;24.20;99.90
14405;DHT22;14983;50.866;4.304;2022-08-19T12:46:23;24.20;49.90
14405;DHT22;14983;50.866;4.304;2022-08-19T12:48:56;24.30;99.90
14405;DHT22;14983;50.866;4.304;2022-08-19T12:51:25;24.60;15.10
14405;DHT22;14983;50.866;4.304;2022-08-19T12:53:53;24.70;99.90
14405;DHT22;14983;50.866;4.304;2022-08-19T12:56:21;24.50;99.90
14405;DHT22;14983;50.866;4.304;2022-08-19T12:58:49;24.90;1.00
14405;DHT22;14983;50.866;4.304;2022-08-19T13:01:18;26.60;99.90
14405;DHT22;14983;50.866;4.304;2022-08-19T13:03:46;26.40;1.00
14405;DHT22;14983;50.866;4.304;2022-08-19T13:06:13;25.80;1.00
14405;DHT22;14983;50.866;4.304;2022-08-19T13:08:42;25.00;99.90
14405;DHT22;14983;50.866;4.304;2022-08-19T13:11:13;24.40;1.00
14405;DHT22;14983;50.866;4.304;2022-08-19T13:13:41;24.20;1.00
14405;DHT22;14983;50.866;4.304;2022-08-19T13:16:10;24.10;1.00
14405;DHT22;14983;50.866;4.304;2022-08-19T13:18:39;24.10;1.00
14405;DHT22;14983;50.866;4.304;2022-08-19T13:21:09;24.00;1.00
14405;DHT22;14983;50.866;4.304;2022-08-19T13:23:42;24.20;1.00
14405;DHT22;14983;50.866;4.304;2022-08-19T13:26:10;24.20;1.00
14405;DHT22;14983;50.866;4.304;2022-08-19T13:28:38;24.10;99.90
14405;DHT22;14983;50.866;4.304;2022-08-19T13:31:24;24.30;1.00
14405;DHT22;14983;50.866;4.304;2022-08-19T13:34:10;24.30;99.90
14405;DHT22;14983;50.866;4.304;2022-08-19T13:36:38;24.90;1.00
14405;DHT22;14983;50.866;4.304;2022-08-19T13:39:07;25.10;1.00
14405;DHT22;14983;50.866;4.304;2022-08-19T13:41:36;25.40;1.00
14405;DHT22;14983;50.866;4.304;2022-08-19T13:44:04;25.30;99.90
14405;DHT22;14983;50.866;4.304;2022-08-19T13:46:32;25.10;99.90
14405;DHT22;14983;50.866;4.304;2022-08-19T13:48:59;25.00;1.00
14405;DHT22;14983;50.866;4.304;2022-08-19T13:51:26;24.60;1.00
14405;DHT22;14983;50.866;4.304;2022-08-19T13:53:52;24.20;1.00
14405;DHT22;14983;50.866;4.304;2022-08-19T13:56:22;24.00;1.00
14405;DHT22;14983;50.866;4.304;2022-08-19T13:58:49;23.70;1.00
14405;DHT22;14983;50.866;4.304;2022-08-19T14:01:19;23.50;55.10
14405;DHT22;14983;50.866;4.304;2022-08-19T14:03:47;23.30;99.90
14405;DHT22;14983;50.866;4.304;2022-08-19T14:06:14;23.00;99.90
14405;DHT22;14983;50.866;4.304;2022-08-19T14:08:42;22.80;99.90
14405;DHT22;14983;50.866;4.304;2022-08-19T14:11:09;22.60;99.90
14405;DHT22;14983;50.866;4.304;2022-08-19T14:13:38;22.20;99.90
14405;DHT22;14983;50.866;4.304;2022-08-19T14:16:09;22.00;99.90
14405;DHT22;14983;50.866;4.304;2022-08-19T14:18:37;21.90;99.90
14405;DHT22;14983;50.866;4.304;2022-08-19T14:21:05;21.90;99.90
14405;DHT22;14983;50.866;4.304;2022-08-19T14:23:33;22.00;99.90
14405;DHT22;14983;50.866;4.304;2022-08-19T14:26:05;22.10;99.90
14405;DHT22;14983;50.866;4.304;2022-08-19T14:28:32;22.20;99.90
14405;DHT22;14983;50.866;4.304;2022-08-19T14:31:01;22.20;99.90
14405;DHT22;14983;50.866;4.304;2022-08-19T14:33:27;22.10;99.90
14405;DHT22;14983;50.866;4.304;2022-08-19T14:35:54;22.10;99.90
14405;DHT22;14983;50.866;4.304;2022-08-19T14:38:21;22.10;99.90
14405;DHT22;14983;50.866;4.304;2022-08-19T14:40:48;21.90;99.90
14405;DHT22;14983;50.866;4.304;2022-08-19T14:43:17;21.90;99.90
14405;DHT22;14983;50.866;4.304;2022-08-19T14:45:45;21.90;99.90
14405;DHT22;14983;50.866;4.304;2022-08-19T14:48:14;21.80;99.90
14405;DHT22;14983;50.866;4.304;2022-08-19T14:50:40;22.00;99.90
14405;DHT22;14983;50.866;4.304;2022-08-19T14:53:09;22.10;99.90
14405;DHT22;14983;50.866;4.304;2022-08-19T14:55:41;22.70;99.90
14405;DHT22;14983;50.866;4.304;2022-08-19T14:58:07;23.70;99.90
14405;DHT22;14983;50.866;4.304;2022-08-19T15:00:34;24.50;99.90
14405;DHT22;14983;50.866;4.304;2022-08-19T15:03:01;25.10;99.90
14405;DHT22;14983;50.866;4.304;2022-08-19T15:05:30;25.60;1.00
14405;DHT22;14983;50.866;4.304;2022-08-19T15:07:57;25.60;83.50
14405;DHT22;14983;50.866;4.304;2022-08-19T15:10:24;26.40;1.00
14405;DHT22;14983;50.866;4.304;2022-08-19T15:12:51;27.00;99.90
14405;DHT22;14983;50.866;4.304;2022-08-19T15:15:19;27.60;1.00
14405;DHT22;14983;50.866;4.304;2022-08-19T15:17:48;27.60;88.10
14405;DHT22;14983;50.866;4.304;2022-08-19T15:20:19;27.10;90.30
14405;DHT22;14983;50.866;4.304;2022-08-19T15:22:48;26.50;1.00
14405;DHT22;14983;50.866;4.304;2022-08-19T15:25:16;25.50;26.50
14405;DHT22;14983;50.866;4.304;2022-08-19T15:27:45;25.00;1.00
14405;DHT22;14983;50.866;4.304;2022-08-19T15:30:20;24.60;99.90
14405;DHT22;14983;50.866;4.304;2022-08-19T15:32:48;24.30;99.90
14405;DHT22;14983;50.866;4.304;2022-08-19T15:35:15;24.10;99.90
14405;DHT22;14983;50.866;4.304;2022-08-19T15:37:44;23.90;99.90
14405;DHT22;14983;50.866;4.304;2022-08-19T15:40:16;23.70;99.90
14405;DHT22;14983;50.866;4.304;2022-08-19T15:42:44;23.60;99.90
14405;DHT22;14983;50.866;4.304;2022-08-19T15:45:16;23.30;99.90
14405;DHT22;14983;50.866;4.304;2022-08-19T15:47:43;23.30;99.90
14405;DHT22;14983;50.866;4.304;2022-08-19T15:50:13;23.20;99.90